^^
Saratoga-Weather Station Historical Data
Daily Summary for January 21, 2022 Units:  English    Metric   Both
Daily Weekly Monthly Yearly Custom
  High: Low: Average:
Temperature: 41.5 °F 34.2 °F 37.2 °F
Dew Point: 35.8 °F 30.9 °F 33.1 °F
Humidity: 93% 73% 85%
Wind Speed: 10.1mph 0mph 3.3mph
Wind Gust: 13mph - -
Wind- - WNW
Pressure: 30.6 in 30.5 in -
Precipitation: 0 in    
Historical Graphs
 
 
Tabular Data for January 21, 2022
Time Temperature Dew Point Pressure Wind Wind Speed Wind Gust Humidity Rainfall Rate (Hourly) solar
00:04 34.9 °F 31.5 °F 30.5 in WNW 2.9 mph 4 mph 87% 0 in 0 W/m2
00:09 34.7 °F 31.5 °F 30.5 in West 2 mph 4 mph 88% 0 in 0 W/m2
00:14 34.5 °F 31.3 °F 30.5 in NW 4.9 mph 8 mph 88% 0 in 0 W/m2
00:19 34.5 °F 31.3 °F 30.5 in West 2.9 mph 6 mph 88% 0 in 0 W/m2
00:24 34.5 °F 31.3 °F 30.5 in WSW 4 mph 8 mph 88% 0 in 0 W/m2
00:29 34.7 °F 31.5 °F 30.5 in NW 2.9 mph 9 mph 88% 0 in 0 W/m2
00:34 34.9 °F 31.6 °F 30.5 in WNW 2 mph 8 mph 88% 0 in 0 W/m2
00:39 35.1 °F 31.8 °F 30.5 in West 2.9 mph 9 mph 88% 0 in 0 W/m2
00:44 35.1 °F 31.6 °F 30.5 in WNW 2.9 mph 9 mph 87% 0 in 0 W/m2
00:49 35.2 °F 31.8 °F 30.5 in WNW 4 mph 8 mph 87% 0 in 0 W/m2
00:54 35.4 °F 32 °F 30.5 in WNW 2.9 mph 6 mph 87% 0 in 0 W/m2
00:59 35.4 °F 32 °F 30.5 in NW 0.9 mph 6 mph 87% 0 in 0 W/m2
01:04 35.4 °F 32 °F 30.5 in WSW 2 mph 3 mph 87% 0 in 0 W/m2
01:09 35.2 °F 31.8 °F 30.5 in West 0.9 mph 6 mph 87% 0 in 0 W/m2
01:14 35.1 °F 31.6 °F 30.5 in WNW 2 mph 4 mph 87% 0 in 0 W/m2
01:19 34.9 °F 31.6 °F 30.5 in WNW 4 mph 4 mph 88% 0 in 0 W/m2
01:24 34.7 °F 31.5 °F 30.5 in West 4 mph 4 mph 88% 0 in 0 W/m2
01:29 34.5 °F 31.3 °F 30.5 in NW 2.9 mph 7 mph 88% 0 in 0 W/m2
01:34 34.5 °F 31.3 °F 30.5 in NW 2 mph 5 mph 88% 0 in 0 W/m2
01:39 34.5 °F 31.3 °F 30.5 in WSW 2.9 mph 4 mph 88% 0 in 0 W/m2
01:44 34.5 °F 31.3 °F 30.5 in WNW 0.9 mph 4 mph 88% 0 in 0 W/m2
01:49 34.5 °F 31.3 °F 30.5 in WNW 0.9 mph 2 mph 88% 0 in 0 W/m2
01:54 34.5 °F 31.3 °F 30.5 in NW 0.9 mph 3 mph 88% 0 in 0 W/m2
01:59 34.5 °F 31.3 °F 30.5 in NW 0.9 mph 3 mph 88% 0 in 0 W/m2
02:04 34.3 °F 31.1 °F 30.5 in WNW 2.9 mph 4 mph 88% 0 in 0 W/m2
02:09 34.3 °F 31.1 °F 30.5 in West 4 mph 4 mph 88% 0 in 0 W/m2
02:14 34.3 °F 31.1 °F 30.5 in WNW 2.9 mph 4 mph 88% 0 in 0 W/m2
02:19 34.3 °F 31.1 °F 30.5 in West 4 mph 7 mph 88% 0 in 0 W/m2
02:24 34.3 °F 31.1 °F 30.5 in West 2.9 mph 4 mph 88% 0 in 0 W/m2
02:29 34.3 °F 31.1 °F 30.5 in West 2.9 mph 3 mph 88% 0 in 0 W/m2
02:34 34.2 °F 30.9 °F 30.5 in WNW 0.9 mph 3 mph 88% 0 in 0 W/m2
02:39 34.2 °F 30.9 °F 30.5 in WNW 0.9 mph 4 mph 88% 0 in 0 W/m2
02:44 34.3 °F 31.5 °F 30.5 in WNW 2 mph 6 mph 89% 0 in 0 W/m2
02:49 34.3 °F 31.5 °F 30.5 in West 2.9 mph 4 mph 89% 0 in 0 W/m2
02:54 34.5 °F 31.6 °F 30.5 in WSW 4.9 mph 6 mph 89% 0 in 0 W/m2
02:59 34.7 °F 31.5 °F 30.5 in West 6 mph 6 mph 88% 0 in 0 W/m2
03:04 34.9 °F 31.6 °F 30.5 in West 4 mph 7 mph 88% 0 in 0 W/m2
03:09 34.9 °F 31.6 °F 30.5 in West 6 mph 6 mph 88% 0 in 0 W/m2
03:14 35.1 °F 31.8 °F 30.5 in West 2 mph 5 mph 88% 0 in 0 W/m2
03:19 35.1 °F 31.8 °F 30.5 in WNW 2.9 mph 6 mph 88% 0 in 0 W/m2
03:24 35.1 °F 31.8 °F 30.5 in WNW 2.9 mph 4 mph 88% 0 in 0 W/m2
03:29 35.1 °F 31.8 °F 30.5 in WNW 0.9 mph 5 mph 88% 0 in 0 W/m2
03:34 35.2 °F 32 °F 30.5 in WNW 4 mph 5 mph 88% 0 in 0 W/m2
03:39 35.2 °F 31.8 °F 30.5 in NW 0.9 mph 3 mph 87% 0 in 0 W/m2
03:44 35.1 °F 31.6 °F 30.5 in West 4 mph 5 mph 87% 0 in 0 W/m2
03:49 35.1 °F 31.6 °F 30.5 in West 2.9 mph 6 mph 87% 0 in 0 W/m2
03:54 35.1 °F 31.6 °F 30.5 in WSW 2 mph 4 mph 87% 0 in 0 W/m2
03:59 35.1 °F 31.6 °F 30.5 in WNW 2.9 mph 6 mph 87% 0 in 0 W/m2
04:04 35.1 °F 31.6 °F 30.5 in West 2.9 mph 4 mph 87% 0 in 0 W/m2
04:09 35.1 °F 31.6 °F 30.5 in WNW 2 mph 5 mph 87% 0 in 0 W/m2
04:14 35.1 °F 31.6 °F 30.5 in WNW 2 mph 4 mph 87% 0 in 0 W/m2
04:19 35.1 °F 31.6 °F 30.5 in WNW 2 mph 5 mph 87% 0 in 0 W/m2
04:24 35.1 °F 31.6 °F 30.5 in WNW 0.9 mph 4 mph 87% 0 in 0 W/m2
04:29 35.1 °F 31.6 °F 30.5 in West 2.9 mph 4 mph 87% 0 in 0 W/m2
04:34 35.1 °F 31.6 °F 30.5 in WSW 2 mph 6 mph 87% 0 in 0 W/m2
04:39 35.1 °F 31.6 °F 30.5 in WSW 4.9 mph 6 mph 87% 0 in 0 W/m2
04:44 35.1 °F 31.6 °F 30.5 in West 2.9 mph 6 mph 87% 0 in 0 W/m2
04:49 35.1 °F 31.6 °F 30.5 in West 2 mph 3 mph 87% 0 in 0 W/m2
04:54 35.1 °F 31.6 °F 30.5 in WNW 2 mph 3 mph 87% 0 in 0 W/m2
04:59 35.1 °F 31.6 °F 30.5 in West 2 mph 6 mph 87% 0 in 0 W/m2
05:04 35.1 °F 31.6 °F 30.5 in West 2.9 mph 3 mph 87% 0 in 0 W/m2
05:09 35.1 °F 31.6 °F 30.5 in WNW 0.9 mph 6 mph 87% 0 in 0 W/m2
05:14 35.1 °F 31.6 °F 30.5 in WNW 2.9 mph 3 mph 87% 0 in 0 W/m2
05:19 35.1 °F 31.6 °F 30.5 in West 2.9 mph 4 mph 87% 0 in 0 W/m2
05:24 35.1 °F 31.6 °F 30.5 in WNW 2 mph 4 mph 87% 0 in 0 W/m2
05:29 35.1 °F 31.6 °F 30.5 in West 2 mph 4 mph 87% 0 in 0 W/m2
05:34 34.9 °F 31.5 °F 30.5 in WSW 2.9 mph 4 mph 87% 0 in 0 W/m2
05:39 34.9 °F 31.5 °F 30.5 in WNW 0.9 mph 4 mph 87% 0 in 0 W/m2
05:44 34.9 °F 31.5 °F 30.5 in NW 2 mph 2 mph 87% 0 in 0 W/m2
05:49 34.9 °F 31.5 °F 30.5 in Calm   4 mph 87% 0 in 0 W/m2
05:54 34.9 °F 31.5 °F 30.5 in WNW 2 mph 3 mph 87% 0 in 0 W/m2
05:59 34.9 °F 31.6 °F 30.5 in WNW 2.9 mph 4 mph 88% 0 in 0 W/m2
06:04 34.9 °F 31.6 °F 30.5 in West 2.9 mph 6 mph 88% 0 in 0 W/m2
06:09 34.9 °F 31.6 °F 30.5 in West 2.9 mph 6 mph 88% 0 in 0 W/m2
06:14 34.9 °F 31.6 °F 30.5 in WNW 2.9 mph 4 mph 88% 0 in 0 W/m2
06:19 34.9 °F 31.6 °F 30.5 in WNW 4 mph 6 mph 88% 0 in 0 W/m2
06:24 34.9 °F 31.6 °F 30.5 in West 2 mph 5 mph 88% 0 in 0 W/m2
06:29 34.9 °F 31.6 °F 30.5 in Calm   6 mph 88% 0 in 0 W/m2
06:34 34.9 °F 31.6 °F 30.5 in WNW 2 mph 4 mph 88% 0 in 0 W/m2
06:39 34.9 °F 31.6 °F 30.5 in West 2.9 mph 4 mph 88% 0 in 0 W/m2
06:44 34.9 °F 31.6 °F 30.5 in WNW 2 mph 3 mph 88% 0 in 0 W/m2
06:49 34.9 °F 31.6 °F 30.5 in West 2.9 mph 4 mph 88% 0 in 0 W/m2
06:54 34.7 °F 31.5 °F 30.5 in West 2.9 mph 4 mph 88% 0 in 0 W/m2
06:59 34.9 °F 31.6 °F 30.5 in West 2 mph 4 mph 88% 0 in 0 W/m2
07:04 34.9 °F 31.6 °F 30.5 in West 2 mph 4 mph 88% 0 in 0 W/m2
07:09 34.9 °F 31.6 °F 30.5 in West 2 mph 6 mph 88% 0 in 0 W/m2
07:14 34.9 °F 31.6 °F 30.5 in WNW 2.9 mph 3 mph 88% 0 in 0 W/m2
07:19 34.7 °F 31.5 °F 30.5 in West 2.9 mph 6 mph 88% 0 in 0 W/m2
07:24 34.7 °F 31.5 °F 30.5 in West 2.9 mph 6 mph 88% 0 in 0 W/m2
07:29 34.7 °F 31.5 °F 30.5 in West 2.9 mph 5 mph 88% 0 in 0 W/m2
07:34 34.9 °F 31.6 °F 30.5 in West 6 mph 6 mph 88% 0 in 0 W/m2
07:39 34.9 °F 31.6 °F 30.5 in WNW 2.9 mph 6 mph 88% 0 in 0 W/m2
07:44 35.1 °F 31.6 °F 30.5 in WNW 0.9 mph 7 mph 87% 0 in 0 W/m2
07:49 35.1 °F 31.6 °F 30.5 in WNW 2 mph 4 mph 87% 0 in 0 W/m2
07:54 35.1 °F 31.6 °F 30.5 in WNW 4 mph 7 mph 87% 0 in 0 W/m2
07:59 35.1 °F 31.6 °F 30.5 in WNW 2 mph 4 mph 87% 0 in 0 W/m2
08:04 35.1 °F 31.6 °F 30.5 in NW 0.9 mph 3 mph 87% 0 in 0 W/m2
08:09 35.1 °F 31.6 °F 30.5 in West 2 mph 4 mph 87% 0 in 0 W/m2
08:14 35.1 °F 31.6 °F 30.5 in WNW 4 mph 6 mph 87% 0 in 0 W/m2
08:19 35.1 °F 31.6 °F 30.5 in West 2.9 mph 4 mph 87% 0 in 0 W/m2
08:24 34.9 °F 31.5 °F 30.5 in WNW 2 mph 3 mph 87% 0 in 5 W/m2
08:29 34.7 °F 31.3 °F 30.5 in WNW 2 mph 3 mph 87% 0 in 7 W/m2
08:34 34.7 °F 31.5 °F 30.5 in WSW 2 mph 4 mph 88% 0 in 7 W/m2
08:39 34.5 °F 31.3 °F 30.5 in WNW 0.9 mph 3 mph 88% 0 in 9 W/m2
08:44 34.5 °F 31.3 °F 30.5 in West 0.9 mph 2 mph 88% 0 in 11 W/m2
08:49 34.5 °F 31.3 °F 30.5 in West 2.9 mph 3 mph 88% 0 in 18 W/m2
08:54 34.5 °F 31.3 °F 30.5 in West 2 mph 2 mph 88% 0 in 19 W/m2
08:59 34.3 °F 31.1 °F 30.5 in West 2 mph 2 mph 88% 0 in 23 W/m2
09:04 34.3 °F 31.1 °F 30.6 in West 2.9 mph 3 mph 88% 0 in 28 W/m2
09:09 34.3 °F 31.1 °F 30.6 in WSW 2 mph 2 mph 88% 0 in 23 W/m2
09:14 34.5 °F 31.6 °F 30.6 in West 2 mph 4 mph 89% 0 in 35 W/m2
09:19 34.5 °F 31.6 °F 30.6 in West 2 mph 3 mph 89% 0 in 32 W/m2
09:24 34.7 °F 31.5 °F 30.6 in NW 4 mph 5 mph 88% 0 in 40 W/m2
09:30 35.1 °F 31.8 °F 30.6 in West 2 mph 7 mph 88% 0 in 40 W/m2
09:35 35.2 °F 32 °F 30.6 in West 2 mph 3 mph 88% 0 in 44 W/m2
09:40 35.4 °F 32.2 °F 30.6 in West 2 mph 5 mph 88% 0 in 58 W/m2
09:45 35.6 °F 32.2 °F 30.6 in West 2 mph 2 mph 87% 0 in 79 W/m2
09:50 36 °F 32.5 °F 30.6 in WNW 2 mph 4 mph 87% 0 in 83 W/m2
09:55 36.3 °F 32.5 °F 30.6 in West 6 mph 7 mph 86% 0 in 65 W/m2
10:00 36.7 °F 32.5 °F 30.6 in WNW 2 mph 7 mph 85% 0 in 35 W/m2
10:05 36.9 °F 32.7 °F 30.6 in West 2 mph 4 mph 85% 0 in 25 W/m2
10:10 36.9 °F 32.7 °F 30.6 in West 2.9 mph 6 mph 85% 0 in 37 W/m2
10:15 36.9 °F 32.7 °F 30.6 in NNW 2 mph 6 mph 85% 0 in 23 W/m2
10:20 36.9 °F 32.7 °F 30.6 in NW 2 mph 8 mph 85% 0 in 39 W/m2
10:25 36.9 °F 32.7 °F 30.6 in West 2 mph 2 mph 85% 0 in 47 W/m2
10:30 37 °F 32.9 °F 30.6 in WSW 4.9 mph 5 mph 85% 0 in 86 W/m2
10:35 37.2 °F 32.9 °F 30.6 in WNW 0.9 mph 3 mph 84% 0 in 79 W/m2
10:40 37.6 °F 33.3 °F 30.6 in NW 0.9 mph 1 mph 84% 0 in 67 W/m2
10:45 37.6 °F 33.3 °F 30.6 in NE 0.9 mph 1 mph 84% 0 in 107 W/m2
10:50 37.8 °F 33.4 °F 30.6 in Calm   4 mph 84% 0 in 97 W/m2
10:55 37.9 °F 33.6 °F 30.6 in West 2.9 mph 4 mph 84% 0 in 53 W/m2
11:00 37.9 °F 33.3 °F 30.6 in WNW 2 mph 3 mph 83% 0 in 53 W/m2
11:05 37.9 °F 33.3 °F 30.6 in WNW 0.9 mph 3 mph 83% 0 in 51 W/m2
11:10 37.9 °F 33.6 °F 30.6 in West 2 mph 4 mph 84% 0 in 42 W/m2
11:15 37.9 °F 33.3 °F 30.6 in West 2.9 mph 6 mph 83% 0 in 51 W/m2
11:20 37.9 °F 33.3 °F 30.6 in NNW 0.9 mph 3 mph 83% 0 in 111 W/m2
11:25 38.1 °F 33.4 °F 30.6 in NNW 0.9 mph 5 mph 83% 0 in 109 W/m2
11:30 38.7 °F 33.3 °F 30.6 in North 4 mph 11 mph 81% 0 in 97 W/m2
11:35 39 °F 33.4 °F 30.6 in WSW 4 mph 8 mph 80% 0 in 91 W/m2
11:40 39.2 °F 33.6 °F 30.6 in WNW 4 mph 11 mph 80% 0 in 105 W/m2
11:45 39.4 °F 33.4 °F 30.6 in WNW 2 mph 7 mph 79% 0 in 91 W/m2
11:50 39.6 °F 33.6 °F 30.6 in WNW 4 mph 6 mph 79% 0 in 67 W/m2
11:55 39.6 °F 33.3 °F 30.6 in WSW 2 mph 9 mph 78% 0 in 58 W/m2
12:00 39.6 °F 33.3 °F 30.6 in West 6 mph 10 mph 78% 0 in 47 W/m2
12:05 39.7 °F 33.1 °F 30.6 in WNW 4 mph 9 mph 77% 0 in 49 W/m2
12:16 40.3 °F 33.6 °F 30.6 in NW 2.9 mph 4 mph 77% 0 in 51 W/m2
12:21 40.3 °F 33.1 °F 30.6 in WNW 2 mph 4 mph 75% 0 in 51 W/m2
12:26 40.5 °F 33.1 °F 30.6 in WSW 4 mph 8 mph 75% 0 in 44 W/m2
12:31 40.5 °F 32.9 °F 30.5 in NW 2.9 mph 11 mph 74% 0 in 46 W/m2
12:36 40.5 °F 33.1 °F 30.5 in WNW 4 mph 10 mph 75% 0 in 58 W/m2
12:41 40.5 °F 32.9 °F 30.5 in WSW 4.9 mph 11 mph 74% 0 in 54 W/m2
12:46 40.6 °F 33.1 °F 30.6 in NW 2 mph 6 mph 74% 0 in 40 W/m2
12:51 40.6 °F 32.7 °F 30.5 in NNE 2 mph 4 mph 73% 0 in 30 W/m2
12:56 40.8 °F 33.3 °F 30.5 in WNW 2 mph 6 mph 74% 0 in 35 W/m2
13:01 40.8 °F 32.9 °F 30.5 in North 2.9 mph 4 mph 73% 0 in 33 W/m2
13:06 41 °F 33.4 °F 30.5 in West 4 mph 7 mph 74% 0 in 46 W/m2
13:11 41.2 °F 33.3 °F 30.5 in NW 0.9 mph 10 mph 73% 0 in 58 W/m2
13:16 41.2 °F 33.3 °F 30.5 in Calm   4 mph 73% 0 in 95 W/m2
13:21 41.4 °F 33.6 °F 30.5 in West 2.9 mph 10 mph 74% 0 in 56 W/m2
13:26 41.4 °F 33.4 °F 30.5 in West 6 mph 6 mph 73% 0 in 42 W/m2
13:31 41.2 °F 33.4 °F 30.5 in Calm   8 mph 74% 0 in 49 W/m2
13:36 41 °F 33.6 °F 30.5 in NW 4 mph 6 mph 75% 0 in 113 W/m2
13:41 41.2 °F 33.4 °F 30.6 in NNW 4 mph 11 mph 74% 0 in 62 W/m2
13:46 41.2 °F 33.4 °F 30.5 in NNW 4.9 mph 10 mph 74% 0 in 51 W/m2
13:51 41 °F 33.6 °F 30.5 in WSW 6.9 mph 9 mph 75% 0 in 113 W/m2
13:56 41 °F 33.4 °F 30.5 in WNW 4 mph 10 mph 74% 0 in 69 W/m2
14:01 40.8 °F 33.4 °F 30.5 in WNW 4.9 mph 8 mph 75% 0 in 65 W/m2
14:06 40.8 °F 33.3 °F 30.5 in West 4 mph 6 mph 74% 0 in 30 W/m2
14:11 40.6 °F 33.3 °F 30.5 in WNW 2.9 mph 4 mph 75% 0 in 35 W/m2
14:16 40.8 °F 33.4 °F 30.5 in WSW 4 mph 8 mph 75% 0 in 65 W/m2
14:21 40.8 °F 33.4 °F 30.5 in West 2.9 mph 6 mph 75% 0 in 123 W/m2
14:26 41.4 °F 34 °F 30.5 in West 10.1 mph 10 mph 75% 0 in 127 W/m2
14:31 41.5 °F 33.8 °F 30.5 in WNW 2 mph 9 mph 74% 0 in 72 W/m2
14:36 41.5 °F 33.8 °F 30.5 in West 6.9 mph 7 mph 74% 0 in 84 W/m2
14:41 41.4 °F 33.4 °F 30.5 in NW 4.9 mph 8 mph 73% 0 in 102 W/m2
14:46 41.4 °F 33.6 °F 30.5 in WNW 4 mph 7 mph 74% 0 in 77 W/m2
14:51 41.2 °F 33.4 °F 30.5 in West 2.9 mph 4 mph 74% 0 in 100 W/m2
14:56 41.2 °F 33.8 °F 30.5 in WNW 2.9 mph 6 mph 75% 0 in 104 W/m2
15:01 41.2 °F 34.2 °F 30.5 in NW 2 mph 4 mph 76% 0 in 107 W/m2
15:06 41.2 °F 33.8 °F 30.5 in West 2.9 mph 4 mph 75% 0 in 91 W/m2
15:11 41.2 °F 34.2 °F 30.5 in North 4 mph 5 mph 76% 0 in 58 W/m2
15:16 41.2 °F 34.2 °F 30.5 in WNW 2.9 mph 3 mph 76% 0 in 53 W/m2
15:21 41.2 °F 34.2 °F 30.5 in West 4 mph 7 mph 76% 0 in 60 W/m2
15:26 41.2 °F 34.2 °F 30.5 in WNW 2.9 mph 4 mph 76% 0 in 32 W/m2
15:31 41.2 °F 34.2 °F 30.5 in NW 7 mph 7 mph 76% 0 in 49 W/m2
15:36 41.2 °F 34.2 °F 30.5 in WSW 2.9 mph 5 mph 76% 0 in 53 W/m2
15:41 41.2 °F 34.2 °F 30.5 in West 2 mph 4 mph 76% 0 in 67 W/m2
15:46 41.2 °F 33.8 °F 30.5 in NW 2.9 mph 4 mph 75% 0 in 40 W/m2
15:51 41.2 °F 33.8 °F 30.5 in WNW 2.9 mph 5 mph 75% 0 in 26 W/m2
15:56 41.2 °F 33.8 °F 30.5 in West 2.9 mph 6 mph 75% 0 in 12 W/m2
16:01 41 °F 33.6 °F 30.5 in WNW 2.9 mph 6 mph 75% 0 in 40 W/m2
16:06 41 °F 34 °F 30.5 in WNW 4 mph 4 mph 76% 0 in 23 W/m2
16:11 41 °F 34 °F 30.5 in WSW 6.9 mph 7 mph 76% 0 in 23 W/m2
16:16 40.8 °F 33.8 °F 30.5 in West 4 mph 5 mph 76% 0 in 30 W/m2
16:21 40.8 °F 33.8 °F 30.5 in NW 4 mph 5 mph 76% 0 in 26 W/m2
16:26 40.8 °F 33.8 °F 30.6 in NW 6 mph 9 mph 76% 0 in 21 W/m2
16:31 40.8 °F 33.8 °F 30.6 in WNW 2.9 mph 5 mph 76% 0 in 19 W/m2
16:36 40.8 °F 33.8 °F 30.6 in NW 2.9 mph 7 mph 76% 0 in 18 W/m2
16:41 40.8 °F 34.2 °F 30.6 in NW 2.9 mph 4 mph 77% 0 in 9 W/m2
16:46 40.6 °F 34 °F 30.6 in NW 0.9 mph 4 mph 77% 0 in 9 W/m2
16:51 40.5 °F 33.8 °F 30.6 in West 2 mph 3 mph 77% 0 in 7 W/m2
16:56 40.5 °F 34.2 °F 30.6 in WNW 2 mph 4 mph 78% 0 in 7 W/m2
17:01 40.3 °F 34 °F 30.6 in WNW 2.9 mph 4 mph 78% 0 in 7 W/m2
17:06 40.3 °F 34 °F 30.5 in West 2 mph 8 mph 78% 0 in 5 W/m2
17:11 40.1 °F 34.2 °F 30.5 in WSW 2.9 mph 7 mph 79% 0 in 0 W/m2
17:16 39.9 °F 34.3 °F 30.5 in West 2.9 mph 7 mph 80% 0 in 0 W/m2
17:21 39.9 °F 34.3 °F 30.6 in West 2.9 mph 4 mph 80% 0 in 0 W/m2
17:26 39.7 °F 34.3 °F 30.6 in West 6 mph 6 mph 81% 0 in 0 W/m2
17:31 39.6 °F 34.9 °F 30.6 in West 2.9 mph 6 mph 83% 0 in 0 W/m2
17:36 39.4 °F 34.9 °F 30.6 in WSW 6.9 mph 9 mph 84% 0 in 0 W/m2
17:41 39 °F 34.9 °F 30.6 in WNW 6.9 mph 9 mph 85% 0 in 0 W/m2
17:46 38.8 °F 35.1 °F 30.6 in WSW 4.9 mph 9 mph 86% 0 in 0 W/m2
17:51 38.7 °F 35.1 °F 30.5 in WNW 2.9 mph 11 mph 87% 0 in 0 W/m2
17:56 38.5 °F 34.9 °F 30.5 in West 4 mph 8 mph 87% 0 in 0 W/m2
18:01 38.5 °F 34.9 °F 30.5 in WNW 2.9 mph 11 mph 87% 0 in 0 W/m2
18:06 38.3 °F 34.7 °F 30.5 in WSW 6.9 mph 8 mph 87% 0 in 0 W/m2
18:11 38.1 °F 34.9 °F 30.5 in WNW 4 mph 10 mph 88% 0 in 0 W/m2
18:16 38.1 °F 34.9 °F 30.5 in West 6.9 mph 12 mph 88% 0 in 0 W/m2
18:21 38.1 °F 34.9 °F 30.5 in West 4 mph 9 mph 88% 0 in 0 W/m2
18:26 37.9 °F 34.7 °F 30.5 in WNW 2 mph 12 mph 88% 0 in 0 W/m2
18:31 37.9 °F 35.1 °F 30.5 in WSW 2 mph 7 mph 89% 0 in 0 W/m2
18:36 37.9 °F 35.1 °F 30.5 in West 6 mph 9 mph 89% 0 in 0 W/m2
18:41 37.8 °F 34.9 °F 30.5 in WSW 4.9 mph 7 mph 89% 0 in 0 W/m2
18:46 37.8 °F 34.9 °F 30.5 in WNW 2 mph 9 mph 89% 0 in 0 W/m2
18:51 37.8 °F 34.9 °F 30.5 in WNW 2 mph 4 mph 89% 0 in 0 W/m2
18:56 37.8 °F 34.9 °F 30.5 in WNW 2 mph 5 mph 89% 0 in 0 W/m2
19:01 37.6 °F 34.7 °F 30.5 in WNW 4 mph 12 mph 89% 0 in 0 W/m2
19:06 37.6 °F 34.7 °F 30.5 in WSW 4 mph 9 mph 89% 0 in 0 W/m2
19:11 37.8 °F 34.9 °F 30.5 in West 4 mph 7 mph 89% 0 in 0 W/m2
19:16 37.8 °F 34.9 °F 30.6 in West 6.9 mph 8 mph 89% 0 in 0 W/m2
19:21 37.8 °F 34.9 °F 30.6 in West 2.9 mph 8 mph 89% 0 in 0 W/m2
19:26 37.8 °F 34.9 °F 30.6 in WSW 4 mph 7 mph 89% 0 in 0 W/m2
19:31 37.8 °F 35.1 °F 30.5 in West 6.9 mph 7 mph 90% 0 in 0 W/m2
19:36 37.6 °F 34.9 °F 30.6 in West 6.9 mph 8 mph 90% 0 in 0 W/m2
19:41 37.6 °F 34.9 °F 30.5 in NNW 2.9 mph 10 mph 90% 0 in 0 W/m2
19:46 37.6 °F 34.9 °F 30.5 in West 4 mph 7 mph 90% 0 in 0 W/m2
19:51 37.6 °F 34.9 °F 30.5 in West 8.1 mph 10 mph 90% 0 in 0 W/m2
19:56 37.4 °F 34.7 °F 30.5 in West 2.9 mph 9 mph 90% 0 in 0 W/m2
20:01 37.2 °F 34.5 °F 30.6 in NW 4 mph 10 mph 90% 0 in 0 W/m2
20:06 37.2 °F 34.5 °F 30.6 in West 6.9 mph 9 mph 90% 0 in 0 W/m2
20:11 37.4 °F 34.7 °F 30.6 in West 4 mph 11 mph 90% 0 in 0 W/m2
20:16 37.2 °F 34.5 °F 30.6 in West 8.9 mph 10 mph 90% 0 in 0 W/m2
20:21 37.2 °F 34.5 °F 30.6 in West 4 mph 11 mph 90% 0 in 0 W/m2
20:26 37.2 °F 34.9 °F 30.6 in WNW 6.9 mph 10 mph 91% 0 in 0 W/m2
20:31 37.2 °F 34.9 °F 30.6 in NW 4.9 mph 13 mph 91% 0 in 0 W/m2
20:36 37.4 °F 35.1 °F 30.6 in WNW 2 mph 8 mph 91% 0 in 0 W/m2
20:41 37.4 °F 35.1 °F 30.6 in West 8.9 mph 13 mph 91% 0 in 0 W/m2
20:46 37.4 °F 35.1 °F 30.6 in WNW 2.9 mph 9 mph 91% 0 in 0 W/m2
20:51 37.6 °F 35.2 °F 30.6 in WSW 8.1 mph 8 mph 91% 0 in 0 W/m2
20:56 37.6 °F 35.2 °F 30.6 in WNW 8.1 mph 9 mph 91% 0 in 0 W/m2
21:01 37.6 °F 35.2 °F 30.6 in West 6.9 mph 10 mph 91% 0 in 0 W/m2
21:06 37.6 °F 35.2 °F 30.6 in WNW 8.9 mph 10 mph 91% 0 in 0 W/m2
21:11 37.6 °F 35.2 °F 30.6 in West 8.9 mph 9 mph 91% 0 in 0 W/m2
21:17 37.6 °F 35.2 °F 30.6 in West 6 mph 8 mph 91% 0 in 0 W/m2
21:22 37.6 °F 35.2 °F 30.6 in WNW 6.9 mph 8 mph 91% 0 in 0 W/m2
21:27 37.6 °F 35.2 °F 30.6 in WNW 4 mph 8 mph 91% 0 in 0 W/m2
21:32 37.6 °F 35.2 °F 30.6 in WNW 6 mph 8 mph 91% 0 in 0 W/m2
21:37 37.8 °F 35.4 °F 30.6 in WSW 2.9 mph 13 mph 91% 0 in 0 W/m2
21:42 37.6 °F 35.2 °F 30.6 in West 6 mph 9 mph 91% 0 in 0 W/m2
21:47 37.6 °F 35.2 °F 30.6 in WNW 6 mph 13 mph 91% 0 in 0 W/m2
21:52 37.6 °F 35.2 °F 30.6 in WNW 4.9 mph 10 mph 91% 0 in 0 W/m2
21:57 37.6 °F 35.2 °F 30.5 in West 6.9 mph 9 mph 91% 0 in 0 W/m2
22:02 37.6 °F 35.2 °F 30.5 in WSW 4 mph 10 mph 91% 0 in 0 W/m2
22:07 37.6 °F 35.2 °F 30.5 in WSW 4.9 mph 8 mph 91% 0 in 0 W/m2
22:12 37.4 °F 35.1 °F 30.5 in WNW 2 mph 6 mph 91% 0 in 0 W/m2
22:17 37.2 °F 34.9 °F 30.5 in WSW 4.9 mph 9 mph 91% 0 in 0 W/m2
22:22 37.2 °F 35.1 °F 30.5 in West 6 mph 9 mph 92% 0 in 0 W/m2
22:27 37.2 °F 35.1 °F 30.5 in West 6 mph 10 mph 92% 0 in 0 W/m2
22:32 37.2 °F 35.1 °F 30.5 in NW 2 mph 9 mph 92% 0 in 0 W/m2
22:37 37.2 °F 35.1 °F 30.5 in NW 2.9 mph 9 mph 92% 0 in 0 W/m2
22:42 37.2 °F 35.1 °F 30.5 in WNW 6.9 mph 7 mph 92% 0 in 0 W/m2
22:47 37 °F 34.9 °F 30.5 in SW 2.9 mph 8 mph 92% 0 in 0 W/m2
22:52 37.2 °F 35.1 °F 30.5 in NW 2.9 mph 6 mph 92% 0 in 0 W/m2
22:57 37.2 °F 35.1 °F 30.5 in NW 2.9 mph 4 mph 92% 0 in 0 W/m2
23:02 37.2 °F 35.1 °F 30.5 in West 2.9 mph 4 mph 92% 0 in 0 W/m2
23:07 37.2 °F 35.4 °F 30.5 in West 2.9 mph 9 mph 93% 0 in 0 W/m2
23:12 37.2 °F 35.4 °F 30.5 in WSW 4.9 mph 8 mph 93% 0 in 0 W/m2
23:17 37.2 °F 35.4 °F 30.5 in West 2.9 mph 7 mph 93% 0 in 0 W/m2
23:22 37.2 °F 35.4 °F 30.5 in WNW 2 mph 2 mph 93% 0 in 0 W/m2
23:27 37.2 °F 35.4 °F 30.5 in WNW 2 mph 6 mph 93% 0 in 0 W/m2
23:32 37.4 °F 35.6 °F 30.5 in WNW 2 mph 6 mph 93% 0 in 0 W/m2
23:37 37.4 °F 35.6 °F 30.5 in WSW 4 mph 4 mph 93% 0 in 0 W/m2
23:42 37.6 °F 35.8 °F 30.5 in WSW 2.9 mph 8 mph 93% 0 in 0 W/m2
23:47 37.6 °F 35.4 °F 30.5 in NW 4 mph 7 mph 92% 0 in 0 W/m2
23:52 37.8 °F 35.6 °F 30.5 in WNW 4.9 mph 8 mph 92% 0 in 0 W/m2
23:57 37.8 °F 35.6 °F 30.5 in SW 2.9 mph 6 mph 92% 0 in 0 W/m2
Juneau County Weather
Compliments of Weather Underground - 4 mb